sensor_id;sensor_type;location;lat;lon;timestamp;pressure;altitude;pressure_sealevel;temperature;humidity
5780;BME280;2916;49.798;10.022;2022-07-29T00:02:01;98161.16;;;20.67;47.41
5780;BME280;2916;49.798;10.022;2022-07-29T00:04:28;98159.53;;;20.66;47.60
5780;BME280;2916;49.798;10.022;2022-07-29T00:06:55;98150.53;;;20.58;47.60
5780;BME280;2916;49.798;10.022;2022-07-29T00:09:22;98149.41;;;20.50;47.59
5780;BME280;2916;49.798;10.022;2022-07-29T00:11:50;98159.00;;;20.48;47.96
5780;BME280;2916;49.798;10.022;2022-07-29T00:14:17;98161.50;;;20.49;47.73
5780;BME280;2916;49.798;10.022;2022-07-29T00:16:45;98161.31;;;20.52;47.96
5780;BME280;2916;49.798;10.022;2022-07-29T00:19:13;98151.47;;;20.45;47.81
5780;BME280;2916;49.798;10.022;2022-07-29T00:21:40;98160.03;;;20.45;47.94
5780;BME280;2916;49.798;10.022;2022-07-29T00:24:08;98141.56;;;20.26;47.67
5780;BME280;2916;49.798;10.022;2022-07-29T00:26:35;98159.94;;;20.34;48.03
5780;BME280;2916;49.798;10.022;2022-07-29T00:29:04;98160.13;;;20.31;48.06
5780;BME280;2916;49.798;10.022;2022-07-29T00:31:31;98156.03;;;20.28;48.46
5780;BME280;2916;49.798;10.022;2022-07-29T00:34:00;98161.47;;;20.24;48.48
5780;BME280;2916;49.798;10.022;2022-07-29T00:36:28;98155.69;;;20.07;49.08
5780;BME280;2916;49.798;10.022;2022-07-29T00:38:54;98160.13;;;20.05;48.83
5780;BME280;2916;49.798;10.022;2022-07-29T00:41:22;98150.94;;;20.01;49.78
5780;BME280;2916;49.798;10.022;2022-07-29T00:43:49;98152.78;;;19.99;49.33
5780;BME280;2916;49.798;10.022;2022-07-29T00:46:16;98151.31;;;19.82;49.53
5780;BME280;2916;49.798;10.022;2022-07-29T00:48:43;98143.91;;;19.78;49.75
5780;BME280;2916;49.798;10.022;2022-07-29T00:51:12;98143.78;;;19.67;49.74
5780;BME280;2916;49.798;10.022;2022-07-29T00:53:40;98150.56;;;19.68;49.95
5780;BME280;2916;49.798;10.022;2022-07-29T00:56:08;98143.25;;;19.61;49.83
5780;BME280;2916;49.798;10.022;2022-07-29T00:58:35;98140.72;;;19.60;50.28
5780;BME280;2916;49.798;10.022;2022-07-29T01:01:02;98140.81;;;19.58;49.64
5780;BME280;2916;49.798;10.022;2022-07-29T01:03:30;98148.31;;;19.49;50.12
5780;BME280;2916;49.798;10.022;2022-07-29T01:05:57;98148.09;;;19.39;50.28
5780;BME280;2916;49.798;10.022;2022-07-29T01:08:26;98144.78;;;19.37;50.74
5780;BME280;2916;49.798;10.022;2022-07-29T01:10:54;98137.44;;;19.31;50.49
5780;BME280;2916;49.798;10.022;2022-07-29T01:13:22;98148.56;;;19.31;50.49
5780;BME280;2916;49.798;10.022;2022-07-29T01:15:57;98148.53;;;19.19;50.96
5780;BME280;2916;49.798;10.022;2022-07-29T01:18:34;98134.56;;;19.08;51.13
5780;BME280;2916;49.798;10.022;2022-07-29T01:21:24;98137.09;;;18.96;51.12
5780;BME280;2916;49.798;10.022;2022-07-29T01:24:26;98141.72;;;18.91;51.24
5780;BME280;2916;49.798;10.022;2022-07-29T01:27:04;98138.44;;;19.01;51.37
5780;BME280;2916;49.798;10.022;2022-07-29T01:29:43;98128.72;;;18.92;51.32
5780;BME280;2916;49.798;10.022;2022-07-29T01:32:14;98133.13;;;18.90;51.66
5780;BME280;2916;49.798;10.022;2022-07-29T01:34:52;98135.53;;;18.93;51.18
5780;BME280;2916;49.798;10.022;2022-07-29T01:37:28;98080.72;;;18.62;51.65
5780;BME280;2916;49.798;10.022;2022-07-29T01:39:58;98125.50;;;18.88;51.10
5780;BME280;2916;49.798;10.022;2022-07-29T01:42:34;98125.69;;;18.85;52.01
5780;BME280;2916;49.798;10.022;2022-07-29T01:45:12;98127.44;;;18.85;51.44
5780;BME280;2916;49.798;10.022;2022-07-29T01:47:46;98124.41;;;18.78;51.27
5780;BME280;2916;49.798;10.022;2022-07-29T01:50:18;98122.88;;;18.76;51.85
5780;BME280;2916;49.798;10.022;2022-07-29T01:52:56;98130.59;;;18.76;51.97
5780;BME280;2916;49.798;10.022;2022-07-29T01:55:29;98116.50;;;18.67;51.89
5780;BME280;2916;49.798;10.022;2022-07-29T01:58:00;98127.53;;;18.69;52.21
5780;BME280;2916;49.798;10.022;2022-07-29T02:00:32;98122.66;;;18.64;51.65
5780;BME280;2916;49.798;10.022;2022-07-29T02:03:05;98048.16;;;18.20;51.84
5780;BME280;2916;49.798;10.022;2022-07-29T02:05:38;98105.59;;;18.49;52.30
5780;BME280;2916;49.798;10.022;2022-07-29T02:08:08;98110.53;;;18.52;51.95
5780;BME280;2916;49.798;10.022;2022-07-29T02:10:38;98063.78;;;18.17;52.22
5780;BME280;2916;49.798;10.022;2022-07-29T02:13:09;98062.56;;;18.23;52.06
5780;BME280;2916;49.798;10.022;2022-07-29T02:15:42;98110.16;;;18.58;51.83
5780;BME280;2916;49.798;10.022;2022-07-29T02:18:15;98120.66;;;18.55;51.85
5780;BME280;2916;49.798;10.022;2022-07-29T02:20:47;98116.22;;;18.57;51.90
5780;BME280;2916;49.798;10.022;2022-07-29T02:23:20;98059.47;;;18.18;51.86
5780;BME280;2916;49.798;10.022;2022-07-29T02:25:52;98112.28;;;18.52;51.67
5780;BME280;2916;49.798;10.022;2022-07-29T02:28:23;98115.22;;;18.46;51.60
5780;BME280;2916;49.798;10.022;2022-07-29T02:30:55;98113.13;;;18.38;52.55
5780;BME280;2916;49.798;10.022;2022-07-29T02:33:26;98115.16;;;18.33;52.37
5780;BME280;2916;49.798;10.022;2022-07-29T02:35:54;98109.19;;;18.32;52.35
5780;BME280;2916;49.798;10.022;2022-07-29T02:38:25;98117.81;;;18.31;52.09
5780;BME280;2916;49.798;10.022;2022-07-29T02:41:17;98112.03;;;18.28;52.39
5780;BME280;2916;49.798;10.022;2022-07-29T02:43:47;98049.34;;;17.86;51.78
5780;BME280;2916;49.798;10.022;2022-07-29T02:46:24;98086.19;;;18.01;52.58
5780;BME280;2916;49.798;10.022;2022-07-29T02:49:02;98122.78;;;18.20;52.64
5780;BME280;2916;49.798;10.022;2022-07-29T02:51:41;98097.97;;;18.05;52.94
5780;BME280;2916;49.798;10.022;2022-07-29T02:54:19;98121.38;;;18.14;53.12
5780;BME280;2916;49.798;10.022;2022-07-29T02:56:49;98114.59;;;18.13;53.01
5780;BME280;2916;49.798;10.022;2022-07-29T02:59:25;98116.41;;;18.11;52.94
5780;BME280;2916;49.798;10.022;2022-07-29T03:01:59;98116.25;;;18.14;52.75
5780;BME280;2916;49.798;10.022;2022-07-29T03:04:28;98122.41;;;18.12;52.92
5780;BME280;2916;49.798;10.022;2022-07-29T03:07:00;98119.56;;;18.17;53.01
5780;BME280;2916;49.798;10.022;2022-07-29T03:09:29;98115.41;;;18.14;53.18
5780;BME280;2916;49.798;10.022;2022-07-29T03:11:57;98044.25;;;17.70;53.79
5780;BME280;2916;49.798;10.022;2022-07-29T03:14:26;98113.66;;;18.14;53.40
5780;BME280;2916;49.798;10.022;2022-07-29T03:16:55;98112.94;;;18.12;53.13
5780;BME280;2916;49.798;10.022;2022-07-29T03:19:22;98112.03;;;18.13;53.68
5780;BME280;2916;49.798;10.022;2022-07-29T03:21:50;98110.44;;;18.11;52.78
5780;BME280;2916;49.798;10.022;2022-07-29T03:24:30;98108.91;;;18.08;53.34
5780;BME280;2916;49.798;10.022;2022-07-29T03:26:57;98111.53;;;18.07;53.18
5780;BME280;2916;49.798;10.022;2022-07-29T03:29:26;98117.50;;;18.07;53.52
5780;BME280;2916;49.798;10.022;2022-07-29T03:31:55;98113.28;;;18.06;53.81
5780;BME280;2916;49.798;10.022;2022-07-29T03:34:22;98111.66;;;18.05;53.50
5780;BME280;2916;49.798;10.022;2022-07-29T03:36:50;98108.69;;;17.97;53.71
5780;BME280;2916;49.798;10.022;2022-07-29T03:39:22;98111.63;;;17.91;54.29
5780;BME280;2916;49.798;10.022;2022-07-29T03:41:55;98108.50;;;17.86;54.47
5780;BME280;2916;49.798;10.022;2022-07-29T03:44:23;98111.25;;;17.83;54.66
5780;BME280;2916;49.798;10.022;2022-07-29T03:46:57;98113.09;;;17.81;54.95
5780;BME280;2916;49.798;10.022;2022-07-29T03:49:27;98113.97;;;17.80;55.25
5780;BME280;2916;49.798;10.022;2022-07-29T03:51:55;98112.56;;;17.74;54.76
5780;BME280;2916;49.798;10.022;2022-07-29T03:54:23;98112.44;;;17.77;53.90
5780;BME280;2916;49.798;10.022;2022-07-29T03:56:52;98116.75;;;17.77;54.19
5780;BME280;2916;49.798;10.022;2022-07-29T03:59:21;98115.06;;;17.76;54.50
5780;BME280;2916;49.798;10.022;2022-07-29T04:01:49;98116.56;;;17.80;54.18
5780;BME280;2916;49.798;10.022;2022-07-29T04:04:18;98117.31;;;17.82;54.44
5780;BME280;2916;49.798;10.022;2022-07-29T04:06:46;98118.94;;;17.83;54.66
5780;BME280;2916;49.798;10.022;2022-07-29T04:09:14;98130.16;;;17.82;54.59
5780;BME280;2916;49.798;10.022;2022-07-29T04:11:42;98129.25;;;17.83;55.17
5780;BME280;2916;49.798;10.022;2022-07-29T04:14:09;98126.84;;;17.80;55.18
5780;BME280;2916;49.798;10.022;2022-07-29T04:16:36;98119.47;;;17.74;55.39
5780;BME280;2916;49.798;10.022;2022-07-29T04:19:03;98120.97;;;17.78;55.20
5780;BME280;2916;49.798;10.022;2022-07-29T04:21:37;98123.16;;;17.84;55.13
5780;BME280;2916;49.798;10.022;2022-07-29T04:24:06;98122.34;;;17.83;55.79
5780;BME280;2916;49.798;10.022;2022-07-29T04:26:34;98112.81;;;17.85;55.36
5780;BME280;2916;49.798;10.022;2022-07-29T04:29:01;98116.88;;;17.89;55.15
5780;BME280;2916;49.798;10.022;2022-07-29T04:31:29;98119.34;;;17.91;54.84
5780;BME280;2916;49.798;10.022;2022-07-29T04:33:57;98112.44;;;17.91;55.59
5780;BME280;2916;49.798;10.022;2022-07-29T04:36:24;98115.00;;;17.91;54.76
5780;BME280;2916;49.798;10.022;2022-07-29T04:38:53;98128.91;;;17.89;54.46
5780;BME280;2916;49.798;10.022;2022-07-29T04:41:20;98131.28;;;17.92;54.88
5780;BME280;2916;49.798;10.022;2022-07-29T04:43:47;98127.63;;;17.96;54.89
5780;BME280;2916;49.798;10.022;2022-07-29T04:46:14;98122.81;;;17.90;55.27
5780;BME280;2916;49.798;10.022;2022-07-29T04:48:42;98123.16;;;17.84;55.55
5780;BME280;2916;49.798;10.022;2022-07-29T04:51:09;98129.78;;;17.88;55.27
5780;BME280;2916;49.798;10.022;2022-07-29T04:53:36;98133.13;;;17.90;55.40
5780;BME280;2916;49.798;10.022;2022-07-29T04:56:05;98126.53;;;18.00;54.75
5780;BME280;2916;49.798;10.022;2022-07-29T04:58:34;98128.72;;;18.06;54.94
5780;BME280;2916;49.798;10.022;2022-07-29T05:01:02;98126.31;;;18.03;54.79
5780;BME280;2916;49.798;10.022;2022-07-29T05:03:29;98118.44;;;18.06;55.09
5780;BME280;2916;49.798;10.022;2022-07-29T05:05:56;98120.19;;;18.06;55.04
5780;BME280;2916;49.798;10.022;2022-07-29T05:08:24;98125.88;;;18.11;56.48
5780;BME280;2916;49.798;10.022;2022-07-29T05:10:51;98130.03;;;18.13;56.54
5780;BME280;2916;49.798;10.022;2022-07-29T05:13:19;98061.44;;;17.70;56.38
5780;BME280;2916;49.798;10.022;2022-07-29T05:15:46;98130.03;;;18.13;56.78
5780;BME280;2916;49.798;10.022;2022-07-29T05:18:13;98129.03;;;18.16;56.52
5780;BME280;2916;49.798;10.022;2022-07-29T05:20:41;98129.47;;;18.23;56.00
5780;BME280;2916;49.798;10.022;2022-07-29T05:23:08;98135.91;;;18.58;55.99
5780;BME280;2916;49.798;10.022;2022-07-29T05:25:38;98143.78;;;19.52;54.22
5780;BME280;2916;49.798;10.022;2022-07-29T05:28:06;98145.19;;;20.36;51.83
5780;BME280;2916;49.798;10.022;2022-07-29T05:30:35;98137.22;;;20.65;50.87
5780;BME280;2916;49.798;10.022;2022-07-29T05:33:03;98120.28;;;20.97;50.69
5780;BME280;2916;49.798;10.022;2022-07-29T05:35:30;98150.63;;;21.43;48.85
5780;BME280;2916;49.798;10.022;2022-07-29T05:37:57;98121.72;;;21.85;47.91
5780;BME280;2916;49.798;10.022;2022-07-29T05:40:24;98139.59;;;21.28;48.82
5780;BME280;2916;49.798;10.022;2022-07-29T05:42:51;98150.81;;;21.99;48.68
5780;BME280;2916;49.798;10.022;2022-07-29T05:45:19;98146.41;;;22.35;47.30
5780;BME280;2916;49.798;10.022;2022-07-29T05:47:47;98148.31;;;22.33;47.33
5780;BME280;2916;49.798;10.022;2022-07-29T05:50:14;98147.59;;;22.65;45.89
5780;BME280;2916;49.798;10.022;2022-07-29T05:52:42;98132.44;;;21.56;47.57
5780;BME280;2916;49.798;10.022;2022-07-29T05:55:09;98117.13;;;21.88;47.31
5780;BME280;2916;49.798;10.022;2022-07-29T05:57:36;98110.88;;;22.26;47.18
5780;BME280;2916;49.798;10.022;2022-07-29T06:00:05;98140.28;;;22.81;46.73
5780;BME280;2916;49.798;10.022;2022-07-29T06:02:33;98143.19;;;23.10;45.31
5780;BME280;2916;49.798;10.022;2022-07-29T06:05:02;98136.88;;;23.03;45.03
5780;BME280;2916;49.798;10.022;2022-07-29T06:07:30;98112.50;;;22.72;46.09
5780;BME280;2916;49.798;10.022;2022-07-29T06:09:58;98143.59;;;22.61;46.67
5780;BME280;2916;49.798;10.022;2022-07-29T06:12:25;98145.34;;;23.69;45.18
5780;BME280;2916;49.798;10.022;2022-07-29T06:14:52;98152.59;;;23.22;45.23
5780;BME280;2916;49.798;10.022;2022-07-29T06:17:19;98145.81;;;22.76;46.32
5780;BME280;2916;49.798;10.022;2022-07-29T06:19:47;98155.50;;;23.40;45.50
5780;BME280;2916;49.798;10.022;2022-07-29T06:22:16;98162.47;;;23.61;45.44
5780;BME280;2916;49.798;10.022;2022-07-29T06:24:44;98170.38;;;23.91;44.85
5780;BME280;2916;49.798;10.022;2022-07-29T06:27:11;98158.72;;;24.98;43.37
5780;BME280;2916;49.798;10.022;2022-07-29T06:29:38;98141.28;;;25.20;42.44
5780;BME280;2916;49.798;10.022;2022-07-29T06:32:06;98101.09;;;26.10;40.84
5780;BME280;2916;49.798;10.022;2022-07-29T06:34:34;98159.81;;;25.94;40.94
5780;BME280;2916;49.798;10.022;2022-07-29T06:37:06;98163.38;;;25.55;41.53
5780;BME280;2916;49.798;10.022;2022-07-29T06:39:35;98163.03;;;25.09;42.55
5780;BME280;2916;49.798;10.022;2022-07-29T06:42:04;98157.28;;;26.22;41.15
5780;BME280;2916;49.798;10.022;2022-07-29T06:44:32;98155.28;;;27.08;40.56
5780;BME280;2916;49.798;10.022;2022-07-29T06:47:00;98157.34;;;25.83;40.95
5780;BME280;2916;49.798;10.022;2022-07-29T06:49:27;98118.69;;;25.88;41.79
5780;BME280;2916;49.798;10.022;2022-07-29T06:51:55;98141.72;;;26.50;40.87
5780;BME280;2916;49.798;10.022;2022-07-29T06:54:22;98147.75;;;25.45;41.86
5780;BME280;2916;49.798;10.022;2022-07-29T06:56:51;98152.34;;;26.09;41.37
5780;BME280;2916;49.798;10.022;2022-07-29T06:59:18;98154.00;;;26.10;41.73
5780;BME280;2916;49.798;10.022;2022-07-29T07:01:45;98144.41;;;27.13;39.87
5780;BME280;2916;49.798;10.022;2022-07-29T07:04:13;98152.44;;;26.74;39.98
5780;BME280;2916;49.798;10.022;2022-07-29T07:06:40;98162.59;;;27.23;39.17
5780;BME280;2916;49.798;10.022;2022-07-29T07:09:07;98159.13;;;26.49;40.04
5780;BME280;2916;49.798;10.022;2022-07-29T07:11:35;98172.03;;;26.51;40.61
5780;BME280;2916;49.798;10.022;2022-07-29T07:14:03;98155.00;;;27.29;40.09
5780;BME280;2916;49.798;10.022;2022-07-29T07:16:31;98149.88;;;27.37;39.38
5780;BME280;2916;49.798;10.022;2022-07-29T07:18:58;98162.16;;;27.27;39.81
5780;BME280;2916;49.798;10.022;2022-07-29T07:21:25;98166.13;;;27.31;40.10
5780;BME280;2916;49.798;10.022;2022-07-29T07:23:53;98163.81;;;27.82;38.89
5780;BME280;2916;49.798;10.022;2022-07-29T07:26:20;98156.06;;;27.36;39.76
5780;BME280;2916;49.798;10.022;2022-07-29T07:28:47;98151.56;;;27.64;39.32
5780;BME280;2916;49.798;10.022;2022-07-29T07:31:16;98153.22;;;27.30;39.66
5780;BME280;2916;49.798;10.022;2022-07-29T07:33:43;98146.28;;;27.38;39.99
5780;BME280;2916;49.798;10.022;2022-07-29T07:36:11;98136.38;;;27.24;40.00
5780;BME280;2916;49.798;10.022;2022-07-29T07:38:38;98153.91;;;27.04;40.95
5780;BME280;2916;49.798;10.022;2022-07-29T07:41:05;98102.50;;;27.50;40.34
5780;BME280;2916;49.798;10.022;2022-07-29T07:43:33;98150.69;;;27.74;39.85
5780;BME280;2916;49.798;10.022;2022-07-29T07:46:00;98145.09;;;27.86;39.44
5780;BME280;2916;49.798;10.022;2022-07-29T07:48:29;98144.78;;;27.54;40.21
5780;BME280;2916;49.798;10.022;2022-07-29T07:50:56;98149.25;;;28.23;39.42
5780;BME280;2916;49.798;10.022;2022-07-29T07:53:23;98149.06;;;28.25;39.48
5780;BME280;2916;49.798;10.022;2022-07-29T07:55:51;98148.41;;;27.97;39.75
5780;BME280;2916;49.798;10.022;2022-07-29T07:58:18;98151.25;;;28.03;39.29
5780;BME280;2916;49.798;10.022;2022-07-29T08:00:45;98143.53;;;27.22;40.32
5780;BME280;2916;49.798;10.022;2022-07-29T08:03:13;98099.72;;;26.53;41.55
5780;BME280;2916;49.798;10.022;2022-07-29T08:05:41;98140.88;;;26.39;42.54
5780;BME280;2916;49.798;10.022;2022-07-29T08:08:09;98140.09;;;27.57;41.53
5780;BME280;2916;49.798;10.022;2022-07-29T08:10:36;98143.13;;;27.88;40.37
5780;BME280;2916;49.798;10.022;2022-07-29T08:13:25;98139.00;;;28.30;39.53
5780;BME280;2916;49.798;10.022;2022-07-29T08:15:54;98155.50;;;28.04;40.49
5780;BME280;2916;49.798;10.022;2022-07-29T08:18:26;98070.81;;;27.27;40.33
5780;BME280;2916;49.798;10.022;2022-07-29T08:20:55;98085.66;;;27.88;40.00
5780;BME280;2916;49.798;10.022;2022-07-29T08:23:23;98152.19;;;28.28;40.34
5780;BME280;2916;49.798;10.022;2022-07-29T08:25:52;98084.56;;;28.25;39.26
5780;BME280;2916;49.798;10.022;2022-07-29T08:28:19;98121.38;;;29.17;38.29
5780;BME280;2916;49.798;10.022;2022-07-29T08:30:47;98151.84;;;28.92;38.90
5780;BME280;2916;49.798;10.022;2022-07-29T08:33:14;98154.28;;;28.85;39.00
5780;BME280;2916;49.798;10.022;2022-07-29T08:35:41;98151.16;;;28.73;39.33
5780;BME280;2916;49.798;10.022;2022-07-29T08:38:10;98160.38;;;28.33;39.57
5780;BME280;2916;49.798;10.022;2022-07-29T08:40:37;98159.09;;;28.98;39.32
5780;BME280;2916;49.798;10.022;2022-07-29T08:43:05;98161.25;;;28.68;39.15
5780;BME280;2916;49.798;10.022;2022-07-29T08:45:43;98155.13;;;28.94;38.98
5780;BME280;2916;49.798;10.022;2022-07-29T08:48:12;98149.50;;;29.39;38.74
5780;BME280;2916;49.798;10.022;2022-07-29T08:50:42;98137.81;;;28.93;39.02
5780;BME280;2916;49.798;10.022;2022-07-29T08:53:13;98141.03;;;28.78;38.79
5780;BME280;2916;49.798;10.022;2022-07-29T08:55:43;98151.31;;;29.47;39.14
5780;BME280;2916;49.798;10.022;2022-07-29T08:58:12;98155.94;;;29.69;38.48
5780;BME280;2916;49.798;10.022;2022-07-29T09:00:46;98162.97;;;28.25;39.85
5780;BME280;2916;49.798;10.022;2022-07-29T09:03:19;98158.16;;;29.15;39.54
5780;BME280;2916;49.798;10.022;2022-07-29T09:05:47;98155.59;;;30.05;37.86
5780;BME280;2916;49.798;10.022;2022-07-29T09:08:31;98149.06;;;29.84;37.64
5780;BME280;2916;49.798;10.022;2022-07-29T09:11:01;98146.72;;;30.06;38.61
5780;BME280;2916;49.798;10.022;2022-07-29T09:13:29;98110.78;;;28.92;38.36
5780;BME280;2916;49.798;10.022;2022-07-29T09:15:56;98157.09;;;29.67;37.89
5780;BME280;2916;49.798;10.022;2022-07-29T09:18:34;98150.38;;;30.61;36.82
5780;BME280;2916;49.798;10.022;2022-07-29T09:21:03;98157.09;;;30.63;36.59
5780;BME280;2916;49.798;10.022;2022-07-29T09:24:05;98147.72;;;30.69;36.41
5780;BME280;2916;49.798;10.022;2022-07-29T09:26:36;98155.38;;;30.87;36.47
5780;BME280;2916;49.798;10.022;2022-07-29T09:29:13;98158.03;;;31.64;36.08
5780;BME280;2916;49.798;10.022;2022-07-29T09:31:44;98154.72;;;30.85;36.50
5780;BME280;2916;49.798;10.022;2022-07-29T09:34:14;98156.63;;;29.79;37.18
5780;BME280;2916;49.798;10.022;2022-07-29T09:36:44;98155.44;;;30.70;37.45
5780;BME280;2916;49.798;10.022;2022-07-29T09:39:14;98150.41;;;30.52;36.96
5780;BME280;2916;49.798;10.022;2022-07-29T09:41:47;98129.88;;;30.08;37.52
5780;BME280;2916;49.798;10.022;2022-07-29T09:44:15;98145.56;;;30.72;37.42
5780;BME280;2916;49.798;10.022;2022-07-29T09:46:59;98151.00;;;30.71;36.78
5780;BME280;2916;49.798;10.022;2022-07-29T09:49:32;98147.25;;;30.65;36.59
5780;BME280;2916;49.798;10.022;2022-07-29T09:52:04;98143.84;;;30.96;36.69
5780;BME280;2916;49.798;10.022;2022-07-29T09:54:33;98155.38;;;31.49;35.94
5780;BME280;2916;49.798;10.022;2022-07-29T09:57:05;98152.75;;;31.87;35.33
5780;BME280;2916;49.798;10.022;2022-07-29T09:59:32;98153.44;;;30.72;35.99
5780;BME280;2916;49.798;10.022;2022-07-29T10:02:00;98152.09;;;30.85;37.27
5780;BME280;2916;49.798;10.022;2022-07-29T10:04:39;98147.31;;;30.49;37.26
5780;BME280;2916;49.798;10.022;2022-07-29T10:07:07;98140.53;;;30.63;37.32
5780;BME280;2916;49.798;10.022;2022-07-29T10:09:36;98141.53;;;31.01;36.41
5780;BME280;2916;49.798;10.022;2022-07-29T10:12:10;98137.38;;;31.38;36.58
5780;BME280;2916;49.798;10.022;2022-07-29T10:14:40;98136.66;;;31.44;35.71
5780;BME280;2916;49.798;10.022;2022-07-29T10:17:11;98122.72;;;31.81;35.71
5780;BME280;2916;49.798;10.022;2022-07-29T10:19:39;98141.38;;;31.25;36.23
5780;BME280;2916;49.798;10.022;2022-07-29T10:22:09;98149.97;;;31.65;35.70
5780;BME280;2916;49.798;10.022;2022-07-29T10:24:39;98146.81;;;32.22;35.06
5780;BME280;2916;49.798;10.022;2022-07-29T10:27:08;98135.38;;;31.86;34.61
5780;BME280;2916;49.798;10.022;2022-07-29T10:29:36;98142.94;;;32.04;35.01
5780;BME280;2916;49.798;10.022;2022-07-29T10:32:34;98144.28;;;32.14;35.17
5780;BME280;2916;49.798;10.022;2022-07-29T10:35:35;98137.91;;;31.56;35.54
5780;BME280;2916;49.798;10.022;2022-07-29T10:38:27;98143.53;;;31.91;35.30
5780;BME280;2916;49.798;10.022;2022-07-29T10:41:18;98147.16;;;31.44;35.50
5780;BME280;2916;49.798;10.022;2022-07-29T10:44:01;98138.06;;;31.32;36.18
5780;BME280;2916;49.798;10.022;2022-07-29T10:46:34;98141.41;;;31.48;35.71
5780;BME280;2916;49.798;10.022;2022-07-29T10:49:11;98141.63;;;31.62;35.65
5780;BME280;2916;49.798;10.022;2022-07-29T10:52:04;98096.56;;;31.50;35.28
5780;BME280;2916;49.798;10.022;2022-07-29T10:54:46;98140.47;;;31.79;35.43
5780;BME280;2916;49.798;10.022;2022-07-29T10:57:21;98141.34;;;31.94;35.60
5780;BME280;2916;49.798;10.022;2022-07-29T10:59:49;98136.28;;;32.22;34.82
5780;BME280;2916;49.798;10.022;2022-07-29T11:02:43;98140.53;;;31.56;35.97
5780;BME280;2916;49.798;10.022;2022-07-29T11:05:12;98127.13;;;29.53;38.68
5780;BME280;2916;49.798;10.022;2022-07-29T11:08:20;98128.41;;;31.24;36.95
5780;BME280;2916;49.798;10.022;2022-07-29T11:10:50;98126.25;;;31.04;37.70
5780;BME280;2916;49.798;10.022;2022-07-29T11:13:48;98121.81;;;31.28;37.25
5780;BME280;2916;49.798;10.022;2022-07-29T11:16:19;98125.31;;;31.66;36.62
5780;BME280;2916;49.798;10.022;2022-07-29T11:19:19;98129.06;;;31.72;36.46
5780;BME280;2916;49.798;10.022;2022-07-29T11:21:48;98126.59;;;31.70;36.63
5780;BME280;2916;49.798;10.022;2022-07-29T11:24:19;98130.59;;;31.66;36.55
5780;BME280;2916;49.798;10.022;2022-07-29T11:27:14;98137.81;;;31.87;36.31
5780;BME280;2916;49.798;10.022;2022-07-29T11:29:52;98132.47;;;31.35;37.45
5780;BME280;2916;49.798;10.022;2022-07-29T11:32:22;98133.63;;;31.09;37.96
5780;BME280;2916;49.798;10.022;2022-07-29T11:35:12;98131.78;;;31.41;37.11
5780;BME280;2916;49.798;10.022;2022-07-29T11:37:40;98120.28;;;31.42;37.20
5780;BME280;2916;49.798;10.022;2022-07-29T11:40:17;98126.59;;;31.33;37.88
5780;BME280;2916;49.798;10.022;2022-07-29T11:42:51;98132.50;;;32.10;37.09
5780;BME280;2916;49.798;10.022;2022-07-29T11:45:46;98122.03;;;31.87;36.91
5780;BME280;2916;49.798;10.022;2022-07-29T11:48:17;98120.41;;;31.63;37.87
5780;BME280;2916;49.798;10.022;2022-07-29T11:50:45;98094.41;;;31.08;38.27
5780;BME280;2916;49.798;10.022;2022-07-29T11:53:13;98119.06;;;31.29;37.19
5780;BME280;2916;49.798;10.022;2022-07-29T11:55:41;98124.88;;;31.40;37.74
5780;BME280;2916;49.798;10.022;2022-07-29T11:58:09;98121.00;;;31.73;37.06
5780;BME280;2916;49.798;10.022;2022-07-29T12:00:40;98118.03;;;30.76;37.27
5780;BME280;2916;49.798;10.022;2022-07-29T12:03:10;98113.81;;;31.29;36.65
5780;BME280;2916;49.798;10.022;2022-07-29T12:05:41;98111.47;;;31.35;37.39
5780;BME280;2916;49.798;10.022;2022-07-29T12:08:14;98102.59;;;31.36;37.02
5780;BME280;2916;49.798;10.022;2022-07-29T12:10:42;98105.03;;;31.14;37.65
5780;BME280;2916;49.798;10.022;2022-07-29T12:13:11;98107.63;;;31.45;37.09
5780;BME280;2916;49.798;10.022;2022-07-29T12:15:41;98103.28;;;30.75;37.89
5780;BME280;2916;49.798;10.022;2022-07-29T12:18:13;98109.91;;;30.16;38.48
5780;BME280;2916;49.798;10.022;2022-07-29T12:20:42;98101.69;;;30.66;38.57
5780;BME280;2916;49.798;10.022;2022-07-29T12:23:10;98095.00;;;30.16;38.77
5780;BME280;2916;49.798;10.022;2022-07-29T12:25:40;98084.53;;;30.87;38.66
5780;BME280;2916;49.798;10.022;2022-07-29T12:28:12;98083.75;;;31.09;37.89
5780;BME280;2916;49.798;10.022;2022-07-29T12:30:45;98093.81;;;31.43;37.84
5780;BME280;2916;49.798;10.022;2022-07-29T12:33:17;98094.81;;;31.19;37.90
5780;BME280;2916;49.798;10.022;2022-07-29T12:35:48;98098.13;;;31.59;37.15
5780;BME280;2916;49.798;10.022;2022-07-29T12:38:17;98088.03;;;31.33;37.47
5780;BME280;2916;49.798;10.022;2022-07-29T12:40:46;98086.84;;;31.13;37.66
5780;BME280;2916;49.798;10.022;2022-07-29T12:43:16;98084.66;;;31.16;37.41
5780;BME280;2916;49.798;10.022;2022-07-29T12:45:47;98087.72;;;30.97;37.62
5780;BME280;2916;49.798;10.022;2022-07-29T12:48:16;98090.34;;;30.35;38.81
5780;BME280;2916;49.798;10.022;2022-07-29T12:50:55;98087.66;;;31.13;38.25
5780;BME280;2916;49.798;10.022;2022-07-29T12:53:23;98079.81;;;30.82;37.97
5780;BME280;2916;49.798;10.022;2022-07-29T12:55:52;98072.59;;;31.07;37.52
5780;BME280;2916;49.798;10.022;2022-07-29T12:58:29;98075.94;;;30.93;37.99
5780;BME280;2916;49.798;10.022;2022-07-29T13:01:08;98022.03;;;30.59;37.78
5780;BME280;2916;49.798;10.022;2022-07-29T13:03:58;98087.84;;;30.80;37.95
5780;BME280;2916;49.798;10.022;2022-07-29T13:06:33;98070.81;;;30.76;38.13
5780;BME280;2916;49.798;10.022;2022-07-29T13:09:07;98078.06;;;30.74;38.22
5780;BME280;2916;49.798;10.022;2022-07-29T13:11:38;98082.69;;;30.56;38.47
5780;BME280;2916;49.798;10.022;2022-07-29T13:14:07;98072.53;;;30.53;38.42
5780;BME280;2916;49.798;10.022;2022-07-29T13:17:01;98076.75;;;30.31;38.50
5780;BME280;2916;49.798;10.022;2022-07-29T13:19:35;98072.03;;;30.18;38.93
5780;BME280;2916;49.798;10.022;2022-07-29T13:22:03;98071.06;;;30.11;39.82
5780;BME280;2916;49.798;10.022;2022-07-29T13:24:31;98061.59;;;29.94;39.53
5780;BME280;2916;49.798;10.022;2022-07-29T13:26:58;98063.75;;;29.82;39.38
5780;BME280;2916;49.798;10.022;2022-07-29T13:29:26;98077.34;;;29.86;40.16
5780;BME280;2916;49.798;10.022;2022-07-29T13:31:55;98078.50;;;29.75;39.97